Portada
METAR-TAF:

METAR-TAF

Aeroports :

Khartum, Sudan

latitud: 15-36N, longitud: 032-33E, altitud: 382 m

Observació

L'informe es va fer fa 10 minuts, a les 09:30 UTC
Vent 3 kt del Nord-Est
Temperatura 36°C
Humitat 24%
Pressió 1012 hPa
Visibilitat 10 km o més
sense núvols per sota de 1500 mi sense presència de cumulonimbus.

METAR: HSSS 220930Z 05003KT CAVOK 36/12 Q1012 NOSIG

Hora: 12:40 (09:40 UTC)

Pronòstic

L'informe es va fer fa 4 hores i 40 minuts, a les 05:00 UTC
Pronòstic vàlid del 22 a les 06 UTC al 23 a les 12 UTC
Vent 8 kt del Nord amb ràfegues de 18 kt
Visibilitat 10 km o més
sense núvols per sota de 1500 mi sense presència de cumulonimbus.
Temporalment
l' 22 a les 06 UTC al 22 a les 10 UTC
Visibilitat: 6000 m

TAF: HSSS 220500Z 2206/2312 36008G18KT CAVOK TEMPO 2206/2210 6000

Observacions i pronòstics meteorològics de més de 4000 aeroports (METAR i TAF).

Les estacions disponibles són els punts grocs i vermells al mapa.

Posi el ratolí al punt desitjat per veure el nom de l'estació.

Feu clic per veure les observacions i els pronòstics meteorològics.

Per canviar el mapa: feu clic els botons verds amb una creu de color negre per apropar; al botó verd amb un guió per allunyar la imatge; o en les fletxes verdes per a mapes adjacents.


METAR-TAF: